Time;durP1;ratioP1;P1;durP2;ratioP2;P2;SDS_P1;SDS_P2;PMS_P1;PMS_P2;Temp;Humidity;BMP_temperature;BMP_pressure;BME280_temperature;BME280_humidity;BME280_pressure;Samples;Min_cycle;Max_cycle;Signal;HPM_P1;HPM_P2
2022/05/20 00:00:31;;;;;;;4.78;3.75;;;20.00;99.90;;;;;;5054230;28;20191;-79
2022/05/20 00:02:57;;;;;;;4.18;3.65;;;20.00;99.90;;;;;;5065178;28;20177;-79
2022/05/20 00:05:23;;;;;;;5.68;3.33;;;20.00;99.90;;;;;;5067567;28;20502;-79
2022/05/20 00:07:49;;;;;;;4.50;3.67;;;19.90;99.90;;;;;;5068912;28;20184;-82
2022/05/20 00:10:15;;;;;;;6.78;3.67;;;19.90;99.90;;;;;;5071025;28;20192;-80
2022/05/20 00:12:41;;;;;;;6.55;4.88;;;19.90;99.90;;;;;;5056954;28;20265;-79
2022/05/20 00:15:09;;;;;;;6.25;4.00;;;19.90;99.90;;;;;;5053570;28;20814;-80
2022/05/20 00:17:35;;;;;;;12.60;6.88;;;19.90;99.90;;;;;;5058640;28;20224;-80
2022/05/20 00:20:02;;;;;;;8.40;5.07;;;19.90;99.90;;;;;;5074004;28;20640;-80
2022/05/20 00:22:28;;;;;;;6.35;4.07;;;19.90;99.90;;;;;;5059621;28;20177;-81
2022/05/20 00:27:37;;;;;;;9.70;4.70;;;19.90;99.90;;;;;;5064673;28;20650;-80
2022/05/20 00:30:04;;;;;;;5.82;4.05;;;19.80;99.90;;;;;;5069655;28;20207;-78
2022/05/20 00:32:29;;;;;;;8.00;4.70;;;19.80;99.90;;;;;;5056126;28;20184;-78
2022/05/20 00:34:55;;;;;;;7.00;4.45;;;19.80;99.90;;;;;;5059302;28;20177;-78
2022/05/20 00:37:20;;;;;;;8.27;5.93;;;19.80;99.90;;;;;;5054252;28;20177;-79
2022/05/20 00:39:46;;;;;;;11.48;6.45;;;19.70;99.90;;;;;;5073166;28;20195;-80
2022/05/20 00:42:14;;;;;;;12.13;5.35;;;19.70;99.90;;;;;;5062222;28;20204;-80
2022/05/20 00:44:41;;;;;;;7.05;5.22;;;19.70;99.90;;;;;;5063066;28;20656;-81
2022/05/20 00:47:06;;;;;;;7.32;5.20;;;19.60;99.90;;;;;;5056260;28;20243;-80
2022/05/20 00:49:34;;;;;;;6.78;4.28;;;19.60;99.90;;;;;;5053299;28;20182;-81
2022/05/20 00:52:00;;;;;;;10.20;4.05;;;19.60;99.90;;;;;;5062243;28;20593;-80
2022/05/20 00:54:35;;;;;;;6.68;3.97;;;19.60;99.90;;;;;;5065695;28;20181;-82
2022/05/20 00:57:10;;;;;;;6.15;3.88;;;19.50;99.90;;;;;;5058694;28;20644;-80
2022/05/20 00:59:39;;;;;;;5.93;3.95;;;19.50;99.90;;;;;;5061886;28;20192;-81
2022/05/20 01:02:10;;;;;;;12.48;4.18;;;19.50;99.90;;;;;;5054075;28;20186;-80
2022/05/20 01:04:37;;;;;;;6.47;3.72;;;19.50;99.90;;;;;;5063199;28;20260;-80
2022/05/20 01:07:04;;;;;;;5.97;4.05;;;19.50;99.90;;;;;;5053577;28;20578;-79
2022/05/20 01:09:29;;;;;;;6.25;3.90;;;19.40;99.90;;;;;;5063009;28;20206;-83
2022/05/20 01:11:55;;;;;;;5.28;3.85;;;19.40;99.90;;;;;;5053024;28;20189;-79
2022/05/20 01:14:24;;;;;;;7.78;5.05;;;19.30;99.90;;;;;;5058517;28;20268;-82
2022/05/20 01:16:50;;;;;;;8.05;4.68;;;19.30;99.90;;;;;;5068237;28;20725;-83
2022/05/20 01:19:35;;;;;;;5.35;4.00;;;19.30;99.90;;;;;;5060414;28;20217;-81
2022/05/20 01:22:01;;;;;;;9.10;4.97;;;19.20;99.90;;;;;;5059544;28;20184;-83
2022/05/20 01:24:27;;;;;;;5.80;3.97;;;19.30;99.90;;;;;;5069377;28;20534;-80
2022/05/20 01:26:52;;;;;;;9.85;3.95;;;19.20;99.90;;;;;;5053112;28;20173;-80
2022/05/20 01:29:19;;;;;;;7.03;4.45;;;19.20;99.90;;;;;;5052149;28;20181;-81
2022/05/20 01:31:44;;;;;;;7.05;4.18;;;19.20;99.90;;;;;;5069241;28;20180;-80
2022/05/20 01:34:10;;;;;;;6.05;3.78;;;19.20;99.90;;;;;;5063668;28;20655;-79
2022/05/20 01:36:35;;;;;;;8.65;3.70;;;19.20;99.90;;;;;;5058411;28;20195;-81
2022/05/20 01:39:01;;;;;;;7.32;3.45;;;19.20;99.90;;;;;;5059985;28;20263;-80
2022/05/20 01:41:55;;;;;;;6.65;3.50;;;19.20;99.90;;;;;;5056555;28;20173;-80
2022/05/20 01:44:34;;;;;;;6.38;3.45;;;19.10;99.90;;;;;;5065933;28;20658;-80
2022/05/20 01:47:22;;;;;;;6.88;3.55;;;19.00;99.90;;;;;;5051167;28;20192;-79
2022/05/20 01:50:18;;;;;;;4.05;3.65;;;19.00;99.90;;;;;;5055029;28;20183;-79
2022/05/20 01:53:01;;;;;;;19.83;8.93;;;19.00;99.90;;;;;;5054376;28;20182;-81
2022/05/20 01:55:32;;;;;;;79.38;31.10;;;19.00;99.90;;;;;;5061720;28;20181;-80
2022/05/20 01:58:16;;;;;;;73.43;30.73;;;19.00;99.90;;;;;;5052282;28;20240;-82
2022/05/20 02:00:42;;;;;;;40.75;18.52;;;18.90;99.90;;;;;;5064592;28;20177;-81
2022/05/20 02:03:24;;;;;;;15.32;9.45;;;18.90;99.90;;;;;;5051765;28;20470;-80
2022/05/20 02:05:58;;;;;;;15.38;7.22;;;18.90;99.90;;;;;;5061638;28;20177;-80
2022/05/20 02:08:35;;;;;;;7.47;5.05;;;18.90;99.90;;;;;;5060638;28;20188;-82
2022/05/20 02:11:09;;;;;;;5.88;3.83;;;18.80;99.90;;;;;;5050912;28;20276;-79
2022/05/20 02:13:39;;;;;;;6.25;4.30;;;18.80;99.90;;;;;;5042380;28;20256;-80
2022/05/20 02:16:12;;;;;;;4.65;3.70;;;18.80;99.90;;;;;;5051161;28;20223;-80
2022/05/20 02:18:49;;;;;;;4.95;3.65;;;18.80;99.90;;;;;;5051961;28;20221;-79
2022/05/20 02:21:18;;;;;;;4.85;3.72;;;18.80;99.90;;;;;;5051303;28;20188;-79
2022/05/20 02:23:47;;;;;;;6.10;3.75;;;18.70;99.90;;;;;;5063315;28;20678;-81
2022/05/20 02:26:17;;;;;;;22.50;8.55;;;18.70;99.90;;;;;;5056978;28;20173;-80
2022/05/20 02:28:58;;;;;;;35.38;15.88;;;18.70;99.90;;;;;;5051570;28;20201;-79
2022/05/20 02:31:30;;;;;;;17.45;8.75;;;18.70;99.90;;;;;;5061901;28;20188;-80
2022/05/20 02:33:56;;;;;;;15.68;7.15;;;18.70;99.90;;;;;;5069431;28;20522;-80
2022/05/20 02:36:25;;;;;;;9.93;6.13;;;18.70;99.90;;;;;;5051732;28;20189;-77
2022/05/20 02:38:50;;;;;;;9.63;5.60;;;18.80;99.90;;;;;;5054517;28;20212;-81
2022/05/20 02:41:16;;;;;;;7.97;4.68;;;18.80;99.90;;;;;;5065228;28;20268;-80
2022/05/20 02:43:42;;;;;;;6.53;4.55;;;18.90;99.90;;;;;;5071337;28;20207;-81
2022/05/20 02:46:09;;;;;;;8.35;4.95;;;18.90;99.90;;;;;;5064528;28;20182;-79
2022/05/20 02:48:36;;;;;;;7.93;4.80;;;18.90;99.90;;;;;;5051234;28;20177;-80
2022/05/20 02:51:02;;;;;;;8.32;4.10;;;18.90;99.90;;;;;;5064207;28;20178;-80
2022/05/20 02:53:28;;;;;;;10.23;4.13;;;18.90;99.90;;;;;;5051452;28;20640;-80
2022/05/20 02:55:53;;;;;;;4.95;3.95;;;18.90;99.90;;;;;;5067562;28;20218;-81
2022/05/20 03:04:12;;;;;;;6.88;4.20;;;18.80;99.90;;;;;;5051876;28;20590;-80
2022/05/20 03:06:39;;;;;;;8.48;4.15;;;18.80;99.90;;;;;;5065437;28;20181;-80
2022/05/20 03:09:06;;;;;;;6.43;4.00;;;18.80;99.90;;;;;;5066893;28;20183;-80
2022/05/20 03:11:32;;;;;;;5.53;4.03;;;18.70;99.90;;;;;;5061604;28;20663;-80
2022/05/20 03:13:57;;;;;;;5.97;4.30;;;18.70;99.90;;;;;;5051280;28;20186;-80
2022/05/20 03:16:23;;;;;;;17.98;9.18;;;18.60;99.90;;;;;;5065297;28;20184;-81
2022/05/20 03:18:48;;;;;;;17.35;8.25;;;18.70;99.90;;;;;;5052211;28;20217;-77
2022/05/20 03:21:14;;;;;;;21.02;9.95;;;18.60;99.90;;;;;;5052809;28;20623;-80
2022/05/20 03:23:39;;;;;;;44.72;19.88;;;18.70;99.90;;;;;;5052187;28;20189;-80
2022/05/20 03:26:05;;;;;;;70.68;30.00;;;18.80;99.90;;;;;;5064951;28;20180;-79
2022/05/20 03:28:32;;;;;;;49.83;21.73;;;18.80;99.90;;;;;;5055584;28;20547;-81
2022/05/20 03:31:09;;;;;;;41.53;18.15;;;18.90;99.90;;;;;;5051830;28;20239;-78
2022/05/20 03:33:36;;;;;;;33.63;15.18;;;19.10;99.90;;;;;;5062031;28;20698;-81
2022/05/20 03:36:02;;;;;;;26.15;11.40;;;19.10;99.90;;;;;;5060944;28;20601;-79
2022/05/20 03:38:28;;;;;;;15.40;8.65;;;19.30;99.90;;;;;;5068771;28;20223;-79
2022/05/20 03:40:53;;;;;;;20.05;9.32;;;19.40;99.90;;;;;;5051453;28;20174;-80
2022/05/20 03:43:19;;;;;;;16.88;7.72;;;19.50;99.90;;;;;;5062689;28;20181;-77
2022/05/20 03:45:44;;;;;;;12.45;6.63;;;19.50;99.90;;;;;;5055867;28;20184;-75
2022/05/20 03:48:10;;;;;;;10.95;5.15;;;19.60;99.90;;;;;;5053492;28;20177;-73
2022/05/20 03:50:36;;;;;;;10.00;5.28;;;19.70;99.90;;;;;;5056156;28;20708;-72
2022/05/20 03:53:03;;;;;;;9.63;5.30;;;19.70;99.90;;;;;;5074349;28;20259;-71
2022/05/20 03:55:28;;;;;;;8.07;5.45;;;19.80;99.90;;;;;;5073899;28;20220;-73
2022/05/20 03:57:54;;;;;;;12.30;6.95;;;19.90;99.90;;;;;;5074379;28;20236;-70
2022/05/20 04:00:20;;;;;;;10.57;7.13;;;19.90;99.90;;;;;;5062046;28;20260;-75
2022/05/20 04:02:46;;;;;;;11.13;6.05;;;19.90;99.90;;;;;;5064002;28;20187;-71
2022/05/20 04:05:12;;;;;;;11.20;6.78;;;19.90;99.90;;;;;;5058432;28;20181;-74
2022/05/20 04:07:38;;;;;;;10.43;5.75;;;19.90;99.90;;;;;;5069424;28;20177;-70
2022/05/20 04:10:06;;;;;;;8.98;5.47;;;20.00;99.90;;;;;;5069409;28;20230;-65
2022/05/20 04:12:34;;;;;;;10.02;5.90;;;20.10;99.90;;;;;;5062723;28;20277;-69
2022/05/20 04:15:01;;;;;;;13.13;6.70;;;20.20;99.90;;;;;;5046573;28;20189;-70
2022/05/20 04:17:27;;;;;;;34.60;19.70;;;20.30;99.90;;;;;;5059254;28;20332;-68
2022/05/20 04:19:53;;;;;;;74.15;43.28;;;20.30;99.90;;;;;;5053617;28;20704;-79
2022/05/20 04:22:31;;;;;;;107.07;61.22;;;20.30;99.90;;;;;;5053403;28;20537;-68
2022/05/20 04:24:57;;;;;;;12.32;8.10;;;20.20;99.90;;;;;;5061449;28;20191;-69
2022/05/20 04:27:23;;;;;;;7.82;4.95;;;20.20;99.90;;;;;;5059624;28;20280;-69
2022/05/20 04:29:49;;;;;;;28.83;19.80;;;20.10;99.90;;;;;;5062251;28;20185;-71
2022/05/20 04:32:15;;;;;;;29.65;19.02;;;20.10;99.90;;;;;;5053101;28;20177;-67
2022/05/20 04:34:41;;;;;;;48.92;30.90;;;20.20;99.90;;;;;;5052768;28;20178;-69
2022/05/20 04:37:07;;;;;;;8.75;5.35;;;20.20;99.90;;;;;;5067245;28;20183;-70
2022/05/20 04:39:33;;;;;;;6.57;4.28;;;20.20;99.90;;;;;;5068169;28;20212;-77
2022/05/20 04:47:30;;;;;;;13.02;6.55;;;20.10;99.90;;;;;;5052970;28;20176;-77
2022/05/20 04:49:56;;;;;;;8.10;5.68;;;20.20;99.90;;;;;;5051411;28;20178;-78
2022/05/20 04:52:22;;;;;;;7.82;4.72;;;20.30;99.90;;;;;;5051450;28;20276;-77
2022/05/20 04:54:50;;;;;;;6.45;4.57;;;20.50;99.90;;;;;;5051552;28;20177;-77
2022/05/20 04:57:27;;;;;;;6.13;4.00;;;20.60;99.90;;;;;;5051534;28;20181;-77
2022/05/20 05:00:07;;;;;;;4.72;3.90;;;20.70;99.90;;;;;;5051178;28;20177;-77
2022/05/20 05:02:33;;;;;;;9.75;4.47;;;20.70;99.90;;;;;;5051945;28;20218;-78
2022/05/20 05:05:00;;;;;;;5.95;4.30;;;20.70;99.90;;;;;;5053196;28;20264;-77
2022/05/20 05:07:25;;;;;;;4.43;3.90;;;20.60;99.90;;;;;;5053115;28;20189;-76
2022/05/20 05:09:53;;;;;;;4.40;4.00;;;20.60;99.90;;;;;;5052900;28;20177;-76
2022/05/20 05:12:19;;;;;;;6.43;4.50;;;20.60;99.90;;;;;;5052937;28;20204;-76
2022/05/20 05:14:48;;;;;;;6.85;4.38;;;20.70;99.90;;;;;;5053162;28;20185;-77
2022/05/20 05:18:09;;;;;;;7.32;4.40;;;20.90;99.90;;;;;;5052758;28;20221;-77
2022/05/20 05:20:08;;;;;;;4.07;3.67;;;21.10;99.90;;;;;;5052683;28;20186;-76
2022/05/20 05:22:34;;;;;;;6.05;4.15;;;21.30;99.90;;;;;;5053444;28;20185;-76
2022/05/20 05:25:00;;;;;;;7.70;4.18;;;21.50;99.90;;;;;;5052968;28;20181;-75
2022/05/20 05:27:25;;;;;;;5.93;4.13;;;21.70;99.90;;;;;;5046406;28;20177;-75
2022/05/20 05:29:51;;;;;;;6.95;4.55;;;21.90;99.90;;;;;;5052716;28;20174;-76
2022/05/20 05:32:16;;;;;;;10.52;4.40;;;22.00;99.90;;;;;;5052458;28;20177;-77
2022/05/20 05:34:42;;;;;;;5.22;4.18;;;22.20;99.90;;;;;;5052676;28;20541;-76
2022/05/20 05:37:10;;;;;;;7.55;4.65;;;22.50;99.90;;;;;;5052499;28;20633;-77
2022/05/20 05:39:36;;;;;;;4.95;4.00;;;22.70;99.90;;;;;;5052481;28;20232;-76
2022/05/20 05:42:02;;;;;;;6.43;3.95;;;23.00;99.90;;;;;;5052518;28;20636;-77
2022/05/20 05:44:27;;;;;;;9.85;4.68;;;23.30;99.90;;;;;;5052564;28;20595;-77
2022/05/20 05:46:53;;;;;;;5.70;4.22;;;23.70;99.90;;;;;;5052483;28;20182;-78
2022/05/20 05:49:18;;;;;;;6.70;4.22;;;24.20;99.90;;;;;;5052521;28;20182;-78
2022/05/20 05:51:44;;;;;;;7.45;4.18;;;24.70;99.90;;;;;;5052456;28;20256;-77
2022/05/20 05:54:10;;;;;;;9.98;4.20;;;25.20;99.90;;;;;;5052089;28;20182;-78
2022/05/20 05:56:36;;;;;;;7.13;4.30;;;25.60;99.90;;;;;;5052084;28;20176;-79
2022/05/20 05:59:02;;;;;;;4.82;3.80;;;26.00;99.90;;;;;;5052122;28;20303;-78
2022/05/20 06:01:28;;;;;;;5.80;3.83;;;26.30;99.90;;;;;;5052280;28;20213;-79
2022/05/20 06:03:53;;;;;;;5.82;3.83;;;26.80;99.90;;;;;;5051645;28;20212;-78
2022/05/20 06:06:19;;;;;;;6.28;3.80;;;27.00;99.90;;;;;;5052099;28;20883;-78
2022/05/20 06:08:44;;;;;;;7.40;4.35;;;27.30;99.90;;;;;;5052148;28;20640;-78
2022/05/20 06:11:10;;;;;;;4.90;3.63;;;27.60;99.90;;;;;;5052011;28;20192;-79
2022/05/20 06:13:36;;;;;;;4.30;3.70;;;28.00;99.70;;;;;;5052216;28;20181;-78
2022/05/20 06:16:02;;;;;;;5.60;4.43;;;28.60;99.10;;;;;;5051916;28;20628;-80
2022/05/20 06:18:27;;;;;;;6.22;4.07;;;29.10;97.90;;;;;;5051823;28;20321;-79
2022/05/20 06:20:53;;;;;;;5.25;3.63;;;29.60;96.80;;;;;;5052098;28;20339;-80
2022/05/20 06:23:19;;;;;;;4.15;3.65;;;30.00;95.90;;;;;;5052073;28;20174;-78
2022/05/20 06:25:45;;;;;;;5.35;3.85;;;30.30;94.60;;;;;;5049073;28;20174;-78
2022/05/20 06:28:13;;;;;;;7.15;3.67;;;30.50;93.60;;;;;;5048734;28;20268;-79
2022/05/20 06:30:40;;;;;;;4.97;3.55;;;30.80;93.00;;;;;;5052353;28;20641;-79
2022/05/20 06:33:06;;;;;;;5.78;3.30;;;31.00;91.60;;;;;;5052265;28;20182;-79
2022/05/20 06:41:01;;;;;;;4.03;2.90;;;32.00;86.90;;;;;;5052200;28;20662;-79
2022/05/20 06:43:27;;;;;;;4.45;3.50;;;32.40;85.40;;;;;;5051720;28;20181;-78
2022/05/20 06:45:58;;;;;;;4.63;3.20;;;32.70;83.70;;;;;;5052039;28;20177;-78
2022/05/20 06:48:48;;;;;;;4.40;3.72;;;33.00;82.20;;;;;;5051986;28;20180;-79
2022/05/20 06:51:17;;;;;;;6.45;3.75;;;33.30;79.10;;;;;;5050599;28;20173;-77
2022/05/20 06:53:43;;;;;;;6.68;3.40;;;33.70;76.00;;;;;;5051485;28;20631;-78
2022/05/20 06:56:10;;;;;;;4.93;3.30;;;34.00;75.70;;;;;;5051637;28;20181;-77
2022/05/20 06:58:35;;;;;;;3.42;3.00;;;34.40;74.40;;;;;;5051594;28;20215;-77
2022/05/20 07:01:03;;;;;;;7.30;3.47;;;34.70;72.60;;;;;;5051756;28;20177;-78
2022/05/20 07:03:28;;;;;;;4.25;3.80;;;35.10;69.70;;;;;;5051686;28;20181;-79
2022/05/20 07:05:54;;;;;;;6.80;3.40;;;35.40;68.20;;;;;;5051715;28;20267;-78
2022/05/20 07:08:19;;;;;;;5.28;3.60;;;35.70;66.20;;;;;;5051527;28;20529;-78
2022/05/20 07:10:45;;;;;;;5.75;3.22;;;35.90;65.70;;;;;;5051610;28;20184;-81
2022/05/20 07:13:11;;;;;;;4.93;3.53;;;35.90;65.70;;;;;;5051531;28;20185;-78
2022/05/20 07:15:36;;;;;;;5.43;3.42;;;35.60;65.40;;;;;;5051683;28;20181;-79
2022/05/20 07:18:02;;;;;;;4.93;3.42;;;35.50;64.90;;;;;;5054641;28;20315;-78
2022/05/20 07:20:28;;;;;;;5.07;3.40;;;35.60;66.60;;;;;;5055277;28;20215;-79
2022/05/20 07:22:53;;;;;;;6.35;3.22;;;35.60;66.00;;;;;;5055276;28;20651;-77
2022/05/20 07:25:19;;;;;;;4.95;3.50;;;35.60;65.70;;;;;;5055081;28;20173;-80
2022/05/20 07:27:45;;;;;;;5.70;3.88;;;35.60;65.50;;;;;;5047530;28;20173;-78
2022/05/20 07:30:13;;;;;;;4.05;3.28;;;35.70;63.60;;;;;;5055087;28;20652;-79
2022/05/20 07:32:38;;;;;;;5.05;3.60;;;35.90;62.80;;;;;;5054918;28;20584;-78
2022/05/20 07:35:05;;;;;;;3.75;3.30;;;36.10;62.20;;;;;;5054913;28;20255;-79
2022/05/20 07:37:30;;;;;;;8.38;3.50;;;36.10;61.90;;;;;;5054786;28;20183;-78
2022/05/20 07:39:56;;;;;;;5.70;3.53;;;36.00;61.00;;;;;;5054956;28;20173;-78
2022/05/20 07:42:22;;;;;;;5.65;3.60;;;35.90;62.10;;;;;;5054957;28;20548;-77
2022/05/20 07:44:48;;;;;;;4.75;3.53;;;36.00;62.20;;;;;;5054905;28;20192;-78
2022/05/20 07:47:14;;;;;;;5.95;3.60;;;36.10;62.20;;;;;;5054679;28;20163;-78
2022/05/20 07:49:39;;;;;;;4.07;3.67;;;36.10;61.90;;;;;;5054633;28;20173;-78
2022/05/20 07:52:07;;;;;;;3.90;3.30;;;36.20;61.40;;;;;;5054669;28;20227;-78
2022/05/20 07:54:37;;;;;;;5.55;3.67;;;36.10;60.40;;;;;;5054589;28;20267;-78
2022/05/20 07:57:07;;;;;;;6.93;4.00;;;36.30;59.90;;;;;;5054468;28;20180;-78
2022/05/20 07:59:49;;;;;;;5.72;3.42;;;36.60;59.00;;;;;;5054530;28;20216;-78
2022/05/20 08:02:18;;;;;;;4.88;3.70;;;36.80;59.40;;;;;;5054394;28;20208;-80
2022/05/20 08:04:58;;;;;;;5.30;3.30;;;37.10;57.40;;;;;;5053162;28;20521;-80
2022/05/20 08:07:37;;;;;;;5.60;3.97;;;37.20;57.70;;;;;;5054431;28;20165;-78
2022/05/20 08:10:09;;;;;;;5.53;3.72;;;37.20;58.00;;;;;;5054176;28;20185;-80
2022/05/20 08:12:35;;;;;;;5.88;3.92;;;37.20;58.90;;;;;;5054373;28;20209;-78
2022/05/20 08:15:00;;;;;;;5.10;3.80;;;37.30;58.70;;;;;;5054100;28;20209;-78
2022/05/20 08:17:26;;;;;;;5.45;3.65;;;37.30;58.40;;;;;;5053826;28;20224;-77
2022/05/20 08:19:53;;;;;;;5.97;3.75;;;37.30;57.40;;;;;;5054146;28;20276;-78
2022/05/20 08:22:23;;;;;;;4.65;3.63;;;37.20;57.80;;;;;;5053831;28;20181;-78
2022/05/20 08:24:53;;;;;;;8.65;4.03;;;37.30;56.40;;;;;;5054083;28;20272;-78
2022/05/20 08:27:24;;;;;;;4.15;3.85;;;37.50;57.50;;;;;;5047051;28;20180;-77
2022/05/20 08:29:49;;;;;;;6.00;3.60;;;37.40;56.90;;;;;;5054011;28;20169;-77
2022/05/20 08:32:15;;;;;;;5.28;3.50;;;36.80;57.60;;;;;;5053823;28;20203;-78
2022/05/20 08:34:43;;;;;;;7.20;3.95;;;36.50;57.30;;;;;;5053588;28;20512;-78
2022/05/20 08:37:09;;;;;;;4.18;3.45;;;36.40;58.60;;;;;;5053634;28;20188;-79
2022/05/20 08:39:35;;;;;;;8.23;4.13;;;36.40;58.90;;;;;;5053684;28;20308;-79
2022/05/20 08:42:02;;;;;;;6.65;4.35;;;36.40;58.60;;;;;;5053654;28;20214;-79
2022/05/20 08:44:28;;;;;;;5.57;3.97;;;36.10;59.60;;;;;;5052854;28;20216;-79
2022/05/20 08:47:14;;;;;;;5.22;4.05;;;35.90;60.90;;;;;;5053670;28;20208;-78
2022/05/20 08:49:40;;;;;;;5.30;3.72;;;36.00;61.30;;;;;;5053572;28;20180;-77
2022/05/20 08:52:06;;;;;;;4.88;3.90;;;36.20;60.70;;;;;;5052259;28;20183;-79
2022/05/20 08:54:32;;;;;;;4.88;4.05;;;36.40;61.30;;;;;;5053498;28;20267;-79
2022/05/20 08:57:16;;;;;;;5.95;3.95;;;36.60;59.30;;;;;;5053570;28;20259;-79
2022/05/20 08:59:42;;;;;;;7.78;3.95;;;36.70;59.40;;;;;;5051974;28;20219;-77
2022/05/20 09:02:08;;;;;;;4.35;3.95;;;36.70;58.30;;;;;;5053057;28;20169;-79
2022/05/20 09:04:33;;;;;;;5.20;3.75;;;36.50;58.30;;;;;;5053135;28;20266;-78
2022/05/20 09:07:08;;;;;;;8.18;4.25;;;36.30;58.90;;;;;;5051690;28;20176;-78
2022/05/20 09:09:44;;;;;;;6.10;3.70;;;36.20;60.00;;;;;;5052978;28;20711;-79
2022/05/20 09:12:22;;;;;;;4.78;3.15;;;35.50;56.70;;;;;;5053026;28;20177;-77
2022/05/20 09:17:42;;;;;;;8.73;3.30;;;35.10;57.80;;;;;;5052863;28;20232;-79
2022/05/20 09:20:14;;;;;;;7.28;3.22;;;34.80;56.60;;;;;;5052922;28;20184;-78
2022/05/20 09:22:40;;;;;;;6.75;3.35;;;34.80;59.30;;;;;;5033087;28;20182;-76
2022/05/20 09:25:22;;;;;;;5.85;3.40;;;34.80;57.50;;;;;;5032911;28;20268;-78
2022/05/20 09:27:50;;;;;;;5.30;3.28;;;34.80;56.50;;;;;;5046355;28;20542;-79
2022/05/20 09:30:21;;;;;;;4.90;3.40;;;35.00;57.10;;;;;;5052706;28;20169;-77
2022/05/20 09:33:01;;;;;;;7.93;3.38;;;35.20;57.90;;;;;;5052784;28;20181;-77
2022/05/20 09:35:33;;;;;;;3.58;3.20;;;35.60;57.40;;;;;;5052634;28;20180;-76
2022/05/20 09:38:07;;;;;;;9.10;3.40;;;35.90;56.80;;;;;;5052583;28;20192;-76
2022/05/20 09:40:37;;;;;;;5.40;3.38;;;35.80;56.30;;;;;;5051921;28;20177;-76
2022/05/20 09:43:06;;;;;;;7.25;4.15;;;35.90;57.60;;;;;;5052330;28;20727;-75
2022/05/20 09:45:42;;;;;;;5.95;3.60;;;36.00;56.70;;;;;;5052552;28;20817;-76
2022/05/20 09:48:08;;;;;;;5.15;3.20;;;36.30;57.00;;;;;;5052283;28;20176;-77
2022/05/20 09:50:38;;;;;;;5.65;3.45;;;36.50;56.30;;;;;;5052397;28;20169;-77
2022/05/20 09:53:26;;;;;;;7.07;3.42;;;36.60;55.80;;;;;;5052244;28;20172;-76
2022/05/20 09:56:32;;;;;;;6.20;3.80;;;36.40;53.80;;;;;;5052343;28;20177;-75
2022/05/20 09:59:35;;;;;;;4.22;3.15;;;35.90;55.20;;;;;;5052024;28;20270;-72
2022/05/20 10:02:28;;;;;;;5.72;3.38;;;35.30;56.30;;;;;;5052144;28;20216;-74
2022/05/20 10:05:00;;;;;;;5.57;3.85;;;35.30;58.90;;;;;;5051667;28;20234;-75
2022/05/20 10:07:47;;;;;;;7.38;3.38;;;35.20;58.40;;;;;;5052198;28;20195;-76
2022/05/20 10:10:43;;;;;;;5.28;3.70;;;35.40;57.10;;;;;;5052019;28;20180;-76
2022/05/20 10:13:41;;;;;;;7.53;3.40;;;35.60;56.10;;;;;;5030656;28;20252;-75
2022/05/20 10:16:31;;;;;;;4.68;3.72;;;35.70;56.30;;;;;;5048294;28;20648;-75
2022/05/20 10:19:15;;;;;;;7.78;3.42;;;35.90;57.40;;;;;;5051965;28;20270;-76
2022/05/20 10:21:48;;;;;;;7.18;3.67;;;35.70;56.40;;;;;;5051858;28;20223;-75
2022/05/20 10:24:32;;;;;;;7.90;3.80;;;35.40;57.20;;;;;;5051851;28;20172;-74
2022/05/20 10:27:07;;;;;;;6.15;3.97;;;35.40;58.60;;;;;;5045615;28;20251;-75
2022/05/20 10:33:01;;;;;;;7.40;4.10;;;34.90;58.90;;;;;;5052031;28;20238;-75
2022/05/20 10:35:36;;;;;;;4.85;3.75;;;34.90;59.50;;;;;;5051877;28;20208;-74
2022/05/20 10:38:07;;;;;;;9.30;4.18;;;34.90;59.10;;;;;;5051528;28;20567;-74
2022/05/20 10:40:47;;;;;;;6.80;3.70;;;34.70;60.00;;;;;;5051990;28;20620;-74
2022/05/20 10:48:34;;;;;;;5.03;3.47;;;34.80;59.50;;;;;;5051755;28;20168;-75
2022/05/20 10:49:51;;;;;;;4.78;3.30;;;34.50;59.00;;;;;;5051680;28;20663;-74
2022/05/20 10:52:56;;;;;;;7.90;4.05;;;34.50;58.10;;;;;;5055782;28;20173;-73
2022/05/20 10:55:55;;;;;;;4.45;3.25;;;34.50;56.90;;;;;;5055548;28;20578;-75
2022/05/20 10:58:43;;;;;;;7.47;3.63;;;34.50;56.40;;;;;;5055375;28;20553;-75
2022/05/20 11:01:16;;;;;;;8.05;3.50;;;34.40;57.90;;;;;;5055552;28;20173;-75
2022/05/20 11:03:53;;;;;;;5.72;3.50;;;34.20;56.80;;;;;;5055436;28;20653;-76
2022/05/20 11:06:49;;;;;;;7.75;3.83;;;34.20;57.30;;;;;;5055353;28;20584;-76
2022/05/20 11:09:36;;;;;;;5.18;3.30;;;34.00;57.40;;;;;;5055268;28;20659;-75
2022/05/20 11:12:04;;;;;;;4.38;3.22;;;33.50;56.20;;;;;;5054040;28;20226;-73
2022/05/20 11:14:29;;;;;;;6.20;3.42;;;33.30;57.20;;;;;;5055252;28;20621;-74
2022/05/20 11:17:33;;;;;;;7.47;3.58;;;33.30;58.30;;;;;;5055035;28;20359;-74
2022/05/20 11:20:03;;;;;;;4.63;3.50;;;33.30;58.10;;;;;;5039160;28;20258;-74
2022/05/20 11:22:58;;;;;;;7.72;3.45;;;33.50;57.40;;;;;;5055185;28;20184;-73
2022/05/20 11:25:52;;;;;;;7.00;3.45;;;34.10;57.30;;;;;;5054821;28;20195;-74
2022/05/20 11:28:26;;;;;;;7.20;3.42;;;34.70;55.60;;;;;;5052808;28;20184;-73
2022/05/20 11:31:00;;;;;;;8.00;3.60;;;34.90;55.40;;;;;;5055003;28;20173;-73
2022/05/20 11:33:47;;;;;;;4.47;3.30;;;34.70;53.60;;;;;;5054961;28;20533;-73
2022/05/20 11:36:26;;;;;;;5.03;3.45;;;34.30;55.70;;;;;;5054696;28;20180;-73
2022/05/20 11:39:01;;;;;;;5.78;3.60;;;34.50;54.60;;;;;;5054706;28;20282;-73
2022/05/20 11:41:56;;;;;;;5.35;3.10;;;34.80;55.00;;;;;;5054837;28;20244;-73
2022/05/20 11:44:40;;;;;;;6.72;3.33;;;35.20;54.90;;;;;;5054507;28;20168;-73
2022/05/20 11:47:34;;;;;;;3.78;3.08;;;35.70;52.50;;;;;;5054562;28;20323;-74
2022/05/20 11:50:18;;;;;;;6.85;3.28;;;36.10;52.40;;;;;;5054639;28;20184;-73
2022/05/20 11:53:02;;;;;;;4.93;3.20;;;36.00;50.70;;;;;;5054630;28;20169;-74
2022/05/20 11:55:49;;;;;;;7.20;4.00;;;35.80;52.40;;;;;;5054549;28;20185;-74
2022/05/20 11:58:31;;;;;;;5.82;3.25;;;35.60;51.10;;;;;;5054443;28;20200;-74
2022/05/20 12:00:59;;;;;;;6.07;3.15;;;35.70;50.90;;;;;;5054508;28;20176;-72
2022/05/20 12:03:30;;;;;;;3.03;2.60;;;35.80;51.50;;;;;;5053540;28;20259;-73
2022/05/20 12:05:58;;;;;;;6.90;3.10;;;35.50;49.90;;;;;;5054524;28;20220;-72
2022/05/20 12:08:55;;;;;;;8.90;2.90;;;35.30;51.10;;;;;;5054293;28;20272;-73
2022/05/20 12:11:28;;;;;;;6.32;3.05;;;35.20;50.30;;;;;;5045084;28;20246;-73
2022/05/20 12:14:06;;;;;;;7.88;3.22;;;34.90;50.10;;;;;;5054497;28;20629;-72
2022/05/20 12:16:51;;;;;;;5.55;2.80;;;34.80;50.20;;;;;;5054054;28;20266;-73
2022/05/20 12:24:51;;;;;;;7.20;2.90;;;34.50;50.30;;;;;;5054088;28;20204;-73
2022/05/20 12:27:26;;;;;;;6.13;2.78;;;34.50;51.00;;;;;;5047598;28;20181;-73
2022/05/20 12:30:17;;;;;;;6.60;2.78;;;34.60;50.70;;;;;;5053974;28;20635;-72
2022/05/20 12:32:46;;;;;;;6.55;2.90;;;34.50;49.30;;;;;;5053366;28;20569;-73
2022/05/20 12:35:24;;;;;;;7.97;2.80;;;34.50;49.70;;;;;;5053683;28;20183;-72
2022/05/20 12:37:52;;;;;;;8.50;3.00;;;34.60;48.80;;;;;;5054008;28;20551;-72
2022/05/20 12:40:17;;;;;;;7.60;3.15;;;34.50;49.60;;;;;;5053823;28;20647;-72
2022/05/20 12:42:59;;;;;;;5.75;2.67;;;34.60;49.80;;;;;;5053857;28;20172;-72
2022/05/20 12:45:27;;;;;;;7.18;3.00;;;34.60;48.80;;;;;;5053816;28;20185;-73
2022/05/20 12:47:54;;;;;;;6.47;2.75;;;34.60;49.50;;;;;;5053533;28;20271;-73
2022/05/20 12:50:25;;;;;;;4.95;2.50;;;34.70;48.90;;;;;;5053712;28;20182;-73
2022/05/20 12:52:53;;;;;;;5.75;2.80;;;34.80;49.00;;;;;;5053519;28;20180;-73
2022/05/20 12:55:24;;;;;;;4.10;2.55;;;34.80;48.30;;;;;;5053347;28;20731;-73
2022/05/20 12:57:54;;;;;;;4.43;2.47;;;34.80;48.00;;;;;;5053493;28;20268;-72
2022/05/20 13:00:29;;;;;;;4.43;3.00;;;34.80;46.50;;;;;;5053378;28;20188;-74
2022/05/20 13:03:03;;;;;;;6.13;2.60;;;34.70;46.60;;;;;;5053291;28;20234;-73
2022/05/20 13:05:39;;;;;;;5.25;2.65;;;34.70;48.40;;;;;;5053035;28;20640;-74
2022/05/20 13:08:13;;;;;;;4.03;3.00;;;34.70;48.30;;;;;;5053151;28;20688;-74
2022/05/20 13:10:40;;;;;;;4.28;2.60;;;34.70;48.10;;;;;;5053186;28;20180;-74
2022/05/20 13:13:10;;;;;;;6.20;2.47;;;34.70;48.10;;;;;;5053075;28;20173;-74
2022/05/20 13:15:48;;;;;;;3.97;2.83;;;34.80;48.30;;;;;;5053087;28;20173;-73
2022/05/20 13:18:19;;;;;;;5.47;2.80;;;35.00;48.50;;;;;;5051437;28;20589;-74
2022/05/20 13:20:47;;;;;;;6.38;3.00;;;35.00;47.40;;;;;;5053058;28;20189;-74
2022/05/20 13:23:38;;;;;;;6.72;2.65;;;34.80;47.30;;;;;;5052836;28;20641;-74
2022/05/20 13:26:05;;;;;;;4.25;2.78;;;34.80;48.00;;;;;;5047265;28;20189;-74
2022/05/20 13:28:33;;;;;;;4.78;2.53;;;34.80;48.70;;;;;;5052264;28;20212;-73
2022/05/20 13:31:18;;;;;;;5.45;2.88;;;34.60;48.70;;;;;;5052737;28;20169;-74
2022/05/20 13:33:44;;;;;;;6.97;2.70;;;34.40;49.10;;;;;;5052684;28;20260;-74
2022/05/20 13:36:17;;;;;;;7.60;3.42;;;34.00;50.20;;;;;;5052443;28;20205;-74
2022/05/20 13:38:49;;;;;;;7.00;2.78;;;33.80;52.20;;;;;;5052490;28;20250;-74
2022/05/20 13:41:19;;;;;;;5.20;3.05;;;33.50;53.40;;;;;;5052317;28;20181;-74